Arcadia, North Carolina
Current Conditions -  °F | °C
As of 3:15 PM on Sunday 25 Jan 2015 (Local Time) from KEXX Reporting Station
Clear Clear  
Wind Chill: 56°   Ceiling: Unl
Heat Index: 56°   Visibility: 10mi
Dew Point: 31°   Wind: 8mph
Humidity: 38%   Direction: 180°S
Pressure: 29.79"   Gusts: 16mph
Location:  35.7974°N, 80.2541°W
Report Text: KEXX 252015Z AUTO 18007G14KT 10SM CLR 14/00 A2979 RMK AO2 T01351005
Loading
Personal Weather Stations






























Interactive Weather Map New forecast layout! Learn more

10-Day Weather Forecast

Advertisements
Track Severe Weather on mobile